Terminal Aerodrome Forecast
Issued by NWS Tuscon, AZ

Home | Current Version | Previous Version | Text Only | Print | Product List | Glossary On
Versions: 1 2 3 4 5 6 7 8 9 10 11 12 13 14
000
FTUS45 KTWC 250520
TAFTUS
TAF
KTUS 250520Z 2506/2606 23008KT P6SM SCT100
     FM250800 14007KT P6SM FEW120
     FM251900 24016G25KT P6SM SCT080 SCT250
     FM260400 25010KT P6SM SCT080 BKN120=

USA.gov is the U.S. government's official web portal to all federal, state and local government web resources and services.